Time;durP1;ratioP1;P1;durP2;ratioP2;P2;SDS_P1;SDS_P2;PMS_P1;PMS_P2;Temp;Humidity;BMP_temperature;BMP_pressure;BME280_temperature;BME280_humidity;BME280_pressure;Samples;Min_cycle;Max_cycle;Signal;HPM_P1;HPM_P2
2022/10/06 00:00:20;;;;;;;22.90;15.30;;;;;;;15.74;96.96;99466.53;5011373;28;20791;-58
2022/10/06 00:02:45;;;;;;;24.13;15.57;;;;;;;15.78;96.21;99468.84;5015199;28;20060;-59
2022/10/06 00:05:11;;;;;;;22.40;17.10;;;;;;;15.71;96.68;99460.75;5027946;28;20049;-59
2022/10/06 00:07:37;;;;;;;22.13;15.85;;;;;;;15.71;97.05;99471.22;4994043;28;20645;-59
2022/10/06 00:10:04;;;;;;;25.48;16.75;;;;;;;15.67;97.12;99469.91;4994849;28;20026;-58
2022/10/06 00:12:29;;;;;;;23.73;17.25;;;;;;;15.62;96.70;99459.06;5010291;28;20029;-58
2022/10/06 00:14:55;;;;;;;23.85;16.77;;;;;;;15.33;97.14;99429.59;5007400;28;20183;-59
2022/10/06 00:17:20;;;;;;;22.55;15.52;;;;;;;15.63;96.76;99469.41;4997457;28;20030;-59
2022/10/06 00:19:46;;;;;;;22.98;16.50;;;;;;;15.54;96.78;99463.28;5013296;28;20828;-60
2022/10/06 00:22:11;;;;;;;25.13;17.17;;;;;;;15.47;98.11;99462.25;5003699;28;20496;-58
2022/10/06 00:24:36;;;;;;;26.98;17.05;;;;;;;15.21;98.64;99432.66;5003611;28;20035;-59
2022/10/06 00:27:02;;;;;;;25.33;17.13;;;;;;;15.40;98.46;99461.22;5009185;28;20389;-59
2022/10/06 00:29:27;;;;;;;22.17;16.45;;;;;;;15.40;99.48;99463.03;5016023;28;20112;-59
2022/10/06 00:31:54;;;;;;;22.05;15.98;;;;;;;15.18;98.83;99420.66;5014007;28;20761;-57
2022/10/06 00:34:19;;;;;;;21.63;15.93;;;;;;;15.37;98.08;99448.47;5016801;28;20029;-59
2022/10/06 00:36:44;;;;;;;22.67;16.98;;;;;;;15.41;99.03;99460.28;5002839;28;20077;-59
2022/10/06 00:39:10;;;;;;;22.02;16.90;;;;;;;15.35;98.67;99453.84;5035397;28;20698;-58
2022/10/06 00:41:35;;;;;;;23.90;16.88;;;;;;;15.38;99.23;99465.81;5012690;28;20061;-58
2022/10/06 00:44:01;;;;;;;25.33;16.95;;;;;;;15.14;99.95;99425.38;5017415;28;20544;-59
2022/10/06 00:46:52;;;;;;;23.52;16.92;;;;;;;15.36;99.63;99460.72;5021841;28;20030;-58
2022/10/06 00:49:30;;;;;;;20.67;15.90;;;;;;;15.04;99.49;99406.34;5017987;28;20265;-58
2022/10/06 00:52:08;;;;;;;21.13;16.23;;;;;;;15.06;99.68;99414.03;5008813;28;20030;-57
2022/10/06 00:54:35;;;;;;;21.58;16.02;;;;;;;15.28;99.94;99457.25;5044942;28;20033;-59
2022/10/06 00:57:01;;;;;;;22.65;16.02;;;;;;;15.10;100.00;99429.28;5011383;28;20056;-61
2022/10/06 00:59:27;;;;;;;22.05;16.20;;;;;;;15.13;100.00;99433.38;5014341;28;20072;-59
2022/10/06 01:02:00;;;;;;;23.60;16.80;;;;;;;15.23;100.00;99449.03;5014341;28;20113;-59
2022/10/06 01:04:26;;;;;;;23.95;16.65;;;;;;;15.11;100.00;99457.16;4996316;28;20120;-60
2022/10/06 01:06:54;;;;;;;24.40;17.77;;;;;;;15.10;100.00;99447.63;5011786;28;20022;-58
2022/10/06 01:09:20;;;;;;;25.15;18.15;;;;;;;15.16;100.00;99452.25;5004150;28;20049;-59
2022/10/06 01:11:48;;;;;;;25.63;17.27;;;;;;;15.29;100.00;99451.84;4998556;28;20117;-58
2022/10/06 01:14:14;;;;;;;23.02;17.35;;;;;;;15.32;100.00;99448.09;5016024;28;20471;-59
2022/10/06 01:16:41;;;;;;;24.33;17.85;;;;;;;15.35;100.00;99453.84;5000735;28;20516;-59
2022/10/06 01:19:16;;;;;;;21.83;16.98;;;;;;;15.29;100.00;99446.59;5003695;28;20040;-59
2022/10/06 01:21:45;;;;;;;26.67;17.30;;;;;;;15.25;100.00;99444.44;5030892;28;20040;-58
2022/10/06 01:24:11;;;;;;;22.97;18.40;;;;;;;15.23;100.00;99443.78;5015140;28;20086;-60
2022/10/06 01:26:40;;;;;;;23.35;17.77;;;;;;;15.11;100.00;99411.78;5012277;28;20284;-59
2022/10/06 01:29:05;;;;;;;24.83;18.80;;;;;;;15.29;100.00;99440.53;5006916;28;20029;-59
2022/10/06 01:31:31;;;;;;;25.42;17.15;;;;;;;15.34;100.00;99439.09;5012804;28;20064;-59
2022/10/06 01:33:56;;;;;;;24.55;18.17;;;;;;;15.04;100.00;99395.88;5005603;28;20029;-59
2022/10/06 01:36:22;;;;;;;24.05;17.67;;;;;;;15.32;100.00;99440.25;5011202;28;21016;-58
2022/10/06 01:38:47;;;;;;;23.38;18.02;;;;;;;15.38;100.00;99440.41;5007467;28;20035;-60
2022/10/06 01:41:12;;;;;;;23.20;17.17;;;;;;;15.40;100.00;99440.28;5009615;28;20049;-59
2022/10/06 01:43:38;;;;;;;20.98;16.17;;;;;;;15.40;100.00;99439.47;5000727;28;20041;-59
2022/10/06 01:46:03;;;;;;;22.70;16.85;;;;;;;15.33;100.00;99436.63;5016025;28;20029;-60
2022/10/06 01:48:29;;;;;;;22.30;16.58;;;;;;;15.30;100.00;99436.97;5001721;28;20052;-59
2022/10/06 01:50:54;;;;;;;23.25;17.13;;;;;;;15.38;100.00;99442.22;4996606;28;20086;-59
2022/10/06 01:53:20;;;;;;;24.30;16.88;;;;;;;15.37;100.00;99444.03;5010653;28;20691;-60
2022/10/06 01:55:46;;;;;;;23.83;17.48;;;;;;;15.37;100.00;99445.84;5014233;28;20029;-59
2022/10/06 01:58:12;;;;;;;25.90;16.80;;;;;;;15.37;100.00;99443.22;5027356;28;20068;-59
2022/10/06 02:00:37;;;;;;;23.73;17.08;;;;;;;15.31;100.00;99436.78;5010354;28;20385;-58
2022/10/06 02:03:03;;;;;;;22.60;16.80;;;;;;;15.30;100.00;99443.00;5028864;28;20228;-60
2022/10/06 02:05:29;;;;;;;20.88;16.42;;;;;;;15.30;100.00;99450.06;5020836;28;20033;-60
2022/10/06 02:07:54;;;;;;;21.98;17.00;;;;;;;15.31;100.00;99454.31;5012804;28;20033;-59
2022/10/06 02:10:19;;;;;;;22.65;16.60;;;;;;;15.24;100.00;99448.03;5016699;28;20109;-59
2022/10/06 02:12:50;;;;;;;23.48;17.05;;;;;;;15.03;100.00;99415.16;4995215;28;20477;-58
2022/10/06 02:15:15;;;;;;;22.83;16.27;;;;;;;15.27;100.00;99450.34;4999510;28;20184;-59
2022/10/06 02:17:41;;;;;;;22.67;16.67;;;;;;;15.31;100.00;99443.81;5016417;28;20037;-60
2022/10/06 02:20:07;;;;;;;22.77;16.23;;;;;;;15.17;100.00;99442.59;5011717;28;20113;-59
2022/10/06 02:22:37;;;;;;;21.60;16.35;;;;;;;15.15;100.00;99441.91;5020474;28;20544;-60
2022/10/06 02:25:03;;;;;;;19.73;15.57;;;;;;;15.18;100.00;99441.63;5035098;28;20117;-60
2022/10/06 02:27:28;;;;;;;23.10;17.77;;;;;;;15.25;100.00;99445.25;5005631;28;20034;-59
2022/10/06 02:29:54;;;;;;;22.85;15.88;;;;;;;15.19;100.00;99438.84;5017799;28;20029;-59
2022/10/06 02:32:20;;;;;;;23.67;16.60;;;;;;;15.17;100.00;99434.75;5015862;28;20063;-60
2022/10/06 02:34:45;;;;;;;22.58;16.58;;;;;;;14.97;100.00;99413.19;5001015;28;20495;-59
2022/10/06 02:37:11;;;;;;;24.48;18.13;;;;;;;15.09;100.00;99434.69;4992654;28;20083;-59
2022/10/06 02:39:37;;;;;;;26.27;18.05;;;;;;;15.06;100.00;99427.97;5022889;28;20128;-59
2022/10/06 02:42:04;;;;;;;23.50;17.85;;;;;;;14.95;100.00;99426.41;5020872;28;20527;-61
2022/10/06 02:44:29;;;;;;;25.80;18.77;;;;;;;15.05;100.00;99435.97;5015039;28;20045;-59
2022/10/06 02:46:55;;;;;;;25.83;18.63;;;;;;;14.82;100.00;99399.78;5003471;28;20528;-60
2022/10/06 02:49:21;;;;;;;26.30;17.92;;;;;;;15.05;100.00;99430.72;5050235;28;20025;-58
2022/10/06 02:51:46;;;;;;;24.85;17.48;;;;;;;14.74;100.00;99386.66;5007983;28;20060;-58
2022/10/06 02:54:11;;;;;;;27.08;17.75;;;;;;;15.07;100.00;99431.41;5019742;28;20037;-60
2022/10/06 02:56:37;;;;;;;22.13;17.17;;;;;;;15.09;100.00;99435.50;5011645;28;20066;-59
2022/10/06 02:59:02;;;;;;;27.13;17.23;;;;;;;14.73;100.00;99390.22;5018142;28;20025;-59
2022/10/06 03:01:28;;;;;;;24.50;17.75;;;;;;;14.77;100.00;99388.97;5003360;28;20620;-59
2022/10/06 03:03:54;;;;;;;26.38;18.23;;;;;;;14.68;100.00;99390.72;5018055;28;20033;-60
2022/10/06 03:06:22;;;;;;;25.70;17.90;;;;;;;15.03;100.00;99432.69;4999452;28;20038;-59
2022/10/06 03:08:49;;;;;;;25.70;17.40;;;;;;;14.96;100.00;99422.81;4998363;28;20034;-59
2022/10/06 03:11:15;;;;;;;23.35;17.08;;;;;;;14.91;100.00;99430.31;5010612;28;20029;-59
2022/10/06 03:13:40;;;;;;;23.88;17.65;;;;;;;14.90;100.00;99427.84;5020319;28;20033;-59
2022/10/06 03:16:26;;;;;;;24.88;17.38;;;;;;;14.78;100.00;99395.84;5012980;28;20025;-59
2022/10/06 03:18:52;;;;;;;23.15;16.90;;;;;;;14.76;100.00;99393.38;5016432;28;20104;-60
2022/10/06 03:21:20;;;;;;;22.90;16.15;;;;;;;14.75;100.00;99391.75;5020950;28;20039;-58
2022/10/06 03:23:47;;;;;;;25.42;17.50;;;;;;;14.97;100.00;99421.03;5006951;28;20034;-59
2022/10/06 03:26:14;;;;;;;24.63;16.70;;;;;;;14.92;100.00;99421.47;5011435;28;20034;-58
2022/10/06 03:28:40;;;;;;;24.90;16.20;;;;;;;14.96;100.00;99433.28;5016759;28;20119;-58
2022/10/06 03:31:06;;;;;;;23.92;16.75;;;;;;;14.83;100.00;99424.19;5031580;28;20117;-60
2022/10/06 03:33:32;;;;;;;26.65;16.50;;;;;;;14.99;100.00;99432.16;5003988;28;20032;-58
2022/10/06 03:35:59;;;;;;;24.75;17.23;;;;;;;14.73;100.00;99400.72;5019726;28;20029;-59
2022/10/06 03:38:24;;;;;;;24.30;16.95;;;;;;;14.91;100.00;99443.41;5005764;28;20053;-59
2022/10/06 03:40:50;;;;;;;24.63;17.05;;;;;;;14.96;100.00;99441.13;5010496;28;20785;-59
2022/10/06 03:43:15;;;;;;;22.95;15.73;;;;;;;14.91;100.00;99439.94;4999059;28;20464;-59
2022/10/06 03:45:40;;;;;;;24.17;16.25;;;;;;;14.92;100.00;99444.22;5001456;28;20029;-59
2022/10/06 03:48:06;;;;;;;23.10;16.52;;;;;;;14.89;100.00;99434.06;5014088;28;20030;-59
2022/10/06 03:50:32;;;;;;;23.80;16.02;;;;;;;14.91;100.00;99442.56;5012880;28;20386;-59
2022/10/06 03:52:57;;;;;;;22.83;16.48;;;;;;;14.86;100.00;99436.97;5012054;28;20484;-58
2022/10/06 03:55:22;;;;;;;25.65;16.63;;;;;;;14.83;100.00;99440.72;5001043;28;20473;-59
2022/10/06 03:57:48;;;;;;;22.92;16.45;;;;;;;14.83;100.00;99447.75;5007240;28;20044;-58
2022/10/06 04:00:13;;;;;;;26.08;16.13;;;;;;;14.84;100.00;99449.38;4997250;28;20132;-58
2022/10/06 04:02:39;;;;;;;24.27;17.48;;;;;;;14.84;100.00;99445.00;5007722;28;20056;-59
2022/10/06 04:05:05;;;;;;;22.65;16.25;;;;;;;14.87;100.00;99442.06;5006588;28;20030;-57
2022/10/06 04:07:30;;;;;;;26.58;17.55;;;;;;;14.79;100.00;99428.91;5003738;28;20443;-58
2022/10/06 04:09:55;;;;;;;24.50;17.35;;;;;;;14.54;100.00;99399.88;5002845;28;20033;-58
2022/10/06 04:12:21;;;;;;;26.73;17.50;;;;;;;14.84;100.00;99431.06;5016653;28;20033;-60
2022/10/06 04:14:46;;;;;;;22.63;16.15;;;;;;;14.74;100.00;99425.91;5012173;28;20479;-58
2022/10/06 04:17:12;;;;;;;23.25;16.15;;;;;;;14.51;100.00;99400.19;5024444;28;20025;-59
2022/10/06 04:19:37;;;;;;;22.33;16.33;;;;;;;14.52;100.00;99396.59;4998550;28;20026;-59
2022/10/06 04:22:03;;;;;;;26.20;17.42;;;;;;;14.67;100.00;99430.94;5030967;28;20131;-58
2022/10/06 04:24:28;;;;;;;27.13;17.58;;;;;;;14.71;100.00;99434.91;4996637;28;20325;-59
2022/10/06 04:27:26;;;;;;;25.90;17.75;;;;;;;14.77;100.00;99434.28;5046598;28;20498;-59
2022/10/06 04:29:39;;;;;;;24.23;16.27;;;;;;;14.79;100.00;99434.97;5020210;28;20852;-59
2022/10/06 04:32:04;;;;;;;25.92;17.52;;;;;;;14.75;100.00;99441.47;5013230;28;20025;-59
2022/10/06 04:34:30;;;;;;;25.30;16.65;;;;;;;14.79;100.00;99442.00;5015947;28;20045;-59
2022/10/06 04:36:55;;;;;;;24.13;16.17;;;;;;;14.69;100.00;99441.25;5046760;28;20021;-58
2022/10/06 04:39:21;;;;;;;26.23;17.58;;;;;;;14.33;100.00;99389.75;5012309;28;20124;-58
2022/10/06 04:41:46;;;;;;;23.00;16.25;;;;;;;14.57;100.00;99438.03;5045650;28;20029;-60
2022/10/06 04:44:11;;;;;;;23.13;16.63;;;;;;;14.17;100.00;99374.72;5012633;28;20404;-58
2022/10/06 04:46:37;;;;;;;25.38;16.58;;;;;;;14.68;100.00;99452.72;5014602;28;20461;-59
2022/10/06 04:49:03;;;;;;;22.90;16.95;;;;;;;14.61;100.00;99450.69;5012426;28;20032;-60
2022/10/06 04:51:29;;;;;;;23.23;16.35;;;;;;;14.36;100.00;99409.53;5015837;28;20037;-58
2022/10/06 04:53:54;;;;;;;23.98;17.08;;;;;;;14.42;100.00;99425.47;4996431;28;20234;-60
2022/10/06 04:56:22;;;;;;;25.83;16.90;;;;;;;14.62;100.00;99462.00;5015673;28;21757;-57
2022/10/06 04:58:49;;;;;;;24.55;17.40;;;;;;;14.60;100.00;99459.53;5017874;28;20463;-58
2022/10/06 05:01:17;;;;;;;27.63;17.85;;;;;;;14.48;100.00;99449.41;5013871;28;20034;-60
2022/10/06 05:03:44;;;;;;;25.13;16.42;;;;;;;14.58;100.00;99468.47;5010738;28;20504;-60
2022/10/06 05:06:15;;;;;;;23.20;16.73;;;;;;;14.55;100.00;99455.69;5017738;28;20119;-58
2022/10/06 05:08:42;;;;;;;20.90;15.65;;;;;;;14.61;100.00;99455.91;5012158;28;20337;-58
2022/10/06 05:11:10;;;;;;;24.10;17.33;;;;;;;14.50;100.00;99453.50;5012205;28;20040;-59
2022/10/06 05:13:38;;;;;;;24.50;16.17;;;;;;;14.63;100.00;99458.38;5030530;28;20098;-58
2022/10/06 05:16:06;;;;;;;22.15;16.77;;;;;;;14.63;100.00;99457.56;5001163;28;20033;-59
2022/10/06 05:18:32;;;;;;;24.25;16.10;;;;;;;14.64;100.00;99461.81;5023171;28;20087;-59
2022/10/06 05:21:07;;;;;;;22.38;16.52;;;;;;;14.56;100.00;99452.88;5015571;28;20459;-58
2022/10/06 05:23:34;;;;;;;23.63;16.27;;;;;;;14.60;100.00;99461.28;5009976;28;20441;-59
2022/10/06 05:26:00;;;;;;;23.25;16.17;;;;;;;14.67;100.00;99464.94;5047346;28;20448;-59
2022/10/06 05:28:28;;;;;;;24.83;16.13;;;;;;;14.65;100.00;99466.09;5006906;28;20048;-58
2022/10/06 05:30:59;;;;;;;22.42;16.15;;;;;;;14.66;100.00;99468.56;4996458;28;20022;-59
2022/10/06 05:33:26;;;;;;;26.00;17.63;;;;;;;14.62;100.00;99464.59;5001715;28;20260;-58
2022/10/06 05:35:53;;;;;;;22.38;16.45;;;;;;;14.69;100.00;99476.09;5013241;28;20204;-59
2022/10/06 05:38:19;;;;;;;24.58;17.27;;;;;;;14.70;100.00;99469.91;5003366;28;20029;-59
2022/10/06 05:40:45;;;;;;;21.17;14.60;;;;;;;14.60;100.00;99448.22;5004250;28;20026;-58
2022/10/06 05:43:10;;;;;;;23.77;15.95;;;;;;;14.75;100.00;99483.38;5012908;28;20122;-59
2022/10/06 05:45:36;;;;;;;23.15;15.57;;;;;;;14.67;100.00;99480.66;5019175;28;20033;-58
2022/10/06 05:48:01;;;;;;;21.45;15.57;;;;;;;14.68;100.00;99491.97;5013980;28;20064;-60
2022/10/06 05:50:26;;;;;;;28.55;16.80;;;;;;;14.67;100.00;99488.50;5006654;28;20030;-58
2022/10/06 05:52:55;;;;;;;22.88;15.93;;;;;;;14.43;100.00;99449.81;5045490;28;20515;-59
2022/10/06 05:55:21;;;;;;;22.17;15.40;;;;;;;14.53;100.00;99487.22;4995019;28;20473;-60
2022/10/06 05:57:46;;;;;;;20.60;15.23;;;;;;;14.58;100.00;99492.88;5028258;28;20378;-58
2022/10/06 06:00:12;;;;;;;23.23;15.40;;;;;;;14.63;100.00;99494.22;5014288;28;20035;-58
2022/10/06 06:02:37;;;;;;;21.08;16.05;;;;;;;14.63;100.00;99487.19;5013419;28;20092;-60
2022/10/06 06:05:03;;;;;;;21.98;15.05;;;;;;;14.64;100.00;99488.84;4997107;28;20029;-58
2022/10/06 06:07:29;;;;;;;22.73;15.85;;;;;;;14.51;100.00;99470.00;5044776;28;20332;-58
2022/10/06 06:09:54;;;;;;;22.33;15.50;;;;;;;14.67;100.00;99495.56;5015939;28;20738;-58
2022/10/06 06:12:20;;;;;;;19.95;15.38;;;;;;;14.62;100.00;99493.41;4988433;28;20043;-58
2022/10/06 06:17:30;;;;;;;21.95;15.18;;;;;;;14.64;100.00;99501.06;5010524;28;20044;-57
2022/10/06 06:19:55;;;;;;;22.27;16.30;;;;;;;14.69;100.00;99502.28;5010362;28;20018;-58
2022/10/06 06:22:21;;;;;;;20.30;15.13;;;;;;;14.75;100.00;99508.72;5046575;28;20040;-57
2022/10/06 06:24:47;;;;;;;23.83;16.30;;;;;;;14.65;100.00;99503.56;5010649;28;20938;-58
2022/10/06 06:27:12;;;;;;;20.38;14.30;;;;;;;14.76;100.00;99520.84;5004022;28;20080;-58
2022/10/06 06:29:38;;;;;;;20.52;15.13;;;;;;;14.74;100.00;99520.97;5010186;28;20145;-59
2022/10/06 06:32:04;;;;;;;20.80;15.15;;;;;;;14.73;100.00;99519.34;5004111;28;20030;-58
2022/10/06 06:34:30;;;;;;;20.33;14.73;;;;;;;14.75;100.00;99524.44;5010557;28;21273;-59
2022/10/06 06:36:57;;;;;;;20.90;14.35;;;;;;;14.72;100.00;99519.50;5014224;28;20034;-58
2022/10/06 06:39:24;;;;;;;23.60;15.60;;;;;;;14.79;100.00;99526.59;5011969;28;20034;-59
2022/10/06 06:41:49;;;;;;;23.65;14.90;;;;;;;14.71;100.00;99528.31;5000496;28;20337;-59
2022/10/06 06:44:16;;;;;;;20.05;14.45;;;;;;;14.80;100.00;99530.03;5000654;28;20040;-59
2022/10/06 06:46:44;;;;;;;22.75;15.15;;;;;;;14.76;100.00;99533.91;5003365;28;20021;-58
2022/10/06 06:49:10;;;;;;;20.17;14.60;;;;;;;14.76;100.00;99524.25;5013329;28;20021;-57
2022/10/06 06:51:39;;;;;;;18.30;14.15;;;;;;;14.79;100.00;99529.22;4989725;28;20022;-61
2022/10/06 06:54:05;;;;;;;20.15;14.65;;;;;;;14.79;100.00;99531.81;5013999;28;20641;-58
2022/10/06 06:56:33;;;;;;;23.17;14.55;;;;;;;14.57;100.00;99496.44;5008584;28;20503;-57
2022/10/06 06:59:00;;;;;;;20.17;14.30;;;;;;;14.82;100.00;99537.72;5008045;28;20030;-57
2022/10/06 07:01:26;;;;;;;20.83;14.88;;;;;;;14.85;100.00;99543.50;5008687;28;20053;-57
2022/10/06 07:03:57;;;;;;;18.35;13.63;;;;;;;14.81;100.00;99542.16;5002862;28;20102;-58
2022/10/06 07:06:25;;;;;;;19.98;14.15;;;;;;;14.51;100.00;99502.25;5014656;28;20124;-58
2022/10/06 07:08:51;;;;;;;23.05;14.82;;;;;;;14.77;100.00;99546.06;5015177;28;20048;-60
2022/10/06 07:11:28;;;;;;;20.95;13.88;;;;;;;14.79;100.00;99547.53;5012227;28;20430;-58
2022/10/06 07:14:02;;;;;;;20.92;14.13;;;;;;;14.87;100.00;99545.97;4971482;28;20044;-59
2022/10/06 07:27:27;;;;;;;18.73;13.85;;;;;;;14.93;100.00;99572.38;5036498;28;20397;-59
2022/10/06 07:29:55;;;;;;;19.02;13.73;;;;;;;14.88;100.00;99563.34;5005389;28;20042;-58
2022/10/06 07:32:21;;;;;;;20.10;13.73;;;;;;;14.70;100.00;99534.53;5044257;28;20022;-58
2022/10/06 07:34:47;;;;;;;20.45;14.52;;;;;;;14.95;100.00;99570.44;5031247;28;20025;-58
2022/10/06 07:37:13;;;;;;;21.52;14.80;;;;;;;14.89;100.00;99564.97;5013963;28;20113;-60
2022/10/06 07:39:38;;;;;;;20.15;13.75;;;;;;;14.93;100.00;99571.53;5011332;28;21105;-58
2022/10/06 07:42:14;;;;;;;21.88;15.30;;;;;;;14.94;100.00;99567.97;5026448;28;20028;-58
2022/10/06 07:44:40;;;;;;;21.10;14.25;;;;;;;14.97;100.00;99565.88;5035314;28;20029;-59
2022/10/06 07:47:06;;;;;;;21.42;15.40;;;;;;;14.99;99.98;99568.34;5004371;28;20052;-59
2022/10/06 07:49:32;;;;;;;21.88;15.25;;;;;;;15.08;99.73;99571.88;5016406;28;20065;-58
2022/10/06 07:51:57;;;;;;;19.25;13.43;;;;;;;15.19;98.23;99576.88;5040780;28;20033;-59
2022/10/06 07:54:25;;;;;;;19.33;13.90;;;;;;;15.21;97.95;99572.31;5031993;28;20033;-58
2022/10/06 07:56:52;;;;;;;18.77;13.82;;;;;;;15.31;98.16;99577.44;5032010;28;20025;-58
2022/10/06 07:59:17;;;;;;;18.77;13.95;;;;;;;15.30;97.55;99578.44;5020084;28;20022;-59
2022/10/06 08:01:45;;;;;;;20.75;14.30;;;;;;;15.40;98.32;99580.97;5010424;28;20032;-57
2022/10/06 08:04:14;;;;;;;21.92;14.57;;;;;;;15.41;97.23;99588.69;5003715;28;20055;-58
2022/10/06 08:06:40;;;;;;;25.85;17.75;;;;;;;15.41;95.87;99577.38;5013395;28;20033;-58
2022/10/06 08:09:06;;;;;;;20.05;14.30;;;;;;;15.53;95.42;99581.38;5006747;28;20028;-58
2022/10/06 08:11:33;;;;;;;19.15;12.95;;;;;;;15.49;94.73;99575.63;5017721;28;20026;-58
2022/10/06 08:13:58;;;;;;;20.20;14.02;;;;;;;15.52;94.63;99585.81;5009135;28;20127;-58
2022/10/06 08:16:28;;;;;;;19.75;12.95;;;;;;;15.54;95.83;99589.09;4998282;28;20120;-57
2022/10/06 08:18:55;;;;;;;18.48;12.75;;;;;;;15.56;95.45;99584.53;5012748;28;20520;-56
2022/10/06 08:21:26;;;;;;;19.27;13.05;;;;;;;15.56;95.42;99589.75;4989128;28;20103;-59
2022/10/06 08:23:53;;;;;;;21.05;13.23;;;;;;;15.70;95.28;99585.78;4989537;28;20079;-58
2022/10/06 08:26:19;;;;;;;18.85;12.98;;;;;;;15.58;93.48;99558.16;5025649;28;20046;-57
2022/10/06 08:28:48;;;;;;;20.17;12.98;;;;;;;15.90;93.21;99594.28;5005117;28;20428;-59
2022/10/06 08:31:14;;;;;;;19.88;12.93;;;;;;;15.93;93.49;99601.84;5024462;28;20393;-59
2022/10/06 08:33:44;;;;;;;18.90;13.27;;;;;;;15.95;93.42;99604.28;5025603;28;20100;-58
2022/10/06 08:36:14;;;;;;;;;;;;;;;15.93;93.40;99607.09;5018126;28;20717;-59
2022/10/06 08:38:39;;;;;;;;;;;;;;;15.99;94.00;99600.41;5005200;28;19916;-58
2022/10/06 08:41:17;;;;;;;15.88;12.23;;;;;;;16.07;93.69;99605.69;5046812;28;19932;-57
2022/10/06 08:43:46;;;;;;;17.70;12.60;;;;;;;15.94;93.05;99597.44;5014894;28;20452;-59
2022/10/06 08:46:13;;;;;;;18.70;13.52;;;;;;;15.91;93.54;99592.47;5010582;28;20110;-58
2022/10/06 08:48:39;;;;;;;19.42;13.23;;;;;;;15.98;93.15;99598.75;5009824;28;20108;-58
2022/10/06 08:51:33;;;;;;;17.85;12.93;;;;;;;15.79;92.44;99557.00;5029517;28;20044;-59
2022/10/06 08:54:11;;;;;;;21.27;12.98;;;;;;;15.95;92.54;99571.03;5004249;28;20029;-59
2022/10/06 08:56:53;;;;;;;18.65;13.05;;;;;;;15.92;92.38;99557.41;5018588;28;20025;-58
2022/10/06 08:59:18;;;;;;;17.90;13.23;;;;;;;16.20;92.06;99601.81;5033684;28;20516;-59
2022/10/06 09:01:46;;;;;;;18.02;12.73;;;;;;;16.18;91.38;99604.59;5002295;28;20125;-59
2022/10/06 09:04:33;;;;;;;18.05;13.32;;;;;;;16.19;91.98;99601.00;5029680;28;20033;-58
2022/10/06 09:07:14;;;;;;;19.15;13.25;;;;;;;16.26;91.66;99607.28;5008729;28;20026;-58
2022/10/06 09:09:56;;;;;;;18.42;13.57;;;;;;;16.22;91.57;99600.66;5028851;28;20025;-57
2022/10/06 09:12:40;;;;;;;18.35;13.13;;;;;;;16.19;92.69;99608.88;5030573;28;20033;-58
2022/10/06 09:15:08;;;;;;;16.77;12.65;;;;;;;15.90;93.03;99575.94;5011919;28;20038;-57
2022/10/06 09:17:38;;;;;;;18.40;13.30;;;;;;;16.12;93.42;99610.47;5030717;28;20033;-57
2022/10/06 09:20:33;;;;;;;17.02;12.55;;;;;;;16.23;93.63;99610.19;5020809;28;20089;-59
2022/10/06 09:23:01;;;;;;;17.17;13.43;;;;;;;16.33;93.52;99607.44;5006713;28;20046;-57
2022/10/06 09:25:27;;;;;;;17.65;12.32;;;;;;;16.43;92.10;99610.78;4994860;28;20493;-56
2022/10/06 09:27:58;;;;;;;18.27;12.63;;;;;;;16.29;90.09;99572.81;5040865;28;20805;-60
2022/10/06 09:30:24;;;;;;;17.40;12.32;;;;;;;16.59;90.87;99598.69;5001469;28;20108;-59
2022/10/06 09:33:00;;;;;;;18.80;13.05;;;;;;;16.64;92.08;99599.03;5002118;28;20060;-59
2022/10/06 09:35:28;;;;;;;18.00;13.20;;;;;;;16.70;91.35;99596.59;5014637;28;20564;-60
2022/10/06 09:37:57;;;;;;;17.48;12.80;;;;;;;16.62;91.44;99595.75;4996432;28;20030;-58
2022/10/06 09:40:36;;;;;;;18.05;12.85;;;;;;;16.58;91.20;99594.44;5009973;28;20038;-58
2022/10/06 09:43:04;;;;;;;18.40;13.35;;;;;;;16.67;91.44;99598.72;5014853;28;20033;-59
2022/10/06 09:45:30;;;;;;;18.58;12.95;;;;;;;16.69;91.12;99594.13;4998554;28;20037;-59
2022/10/06 09:48:23;;;;;;;18.30;12.90;;;;;;;16.54;90.04;99559.78;5009318;28;20040;-59
2022/10/06 09:51:10;;;;;;;18.02;11.80;;;;;;;16.88;88.33;99603.53;5005237;28;20091;-59
2022/10/06 09:53:38;;;;;;;18.10;12.52;;;;;;;16.96;85.60;99602.72;5016364;28;20021;-58
2022/10/06 09:56:10;;;;;;;18.38;12.77;;;;;;;17.02;84.89;99599.47;5026503;28;20537;-58
2022/10/06 09:58:38;;;;;;;18.83;12.50;;;;;;;17.21;85.13;99595.72;4998339;28;20473;-58
2022/10/06 10:01:08;;;;;;;33.78;14.45;;;;;;;17.13;84.10;99553.69;5015027;28;20112;-58
2022/10/06 10:03:49;;;;;;;18.65;12.82;;;;;;;17.45;82.83;99594.88;4997576;28;20036;-58
2022/10/06 10:06:22;;;;;;;18.20;12.55;;;;;;;17.60;81.78;99595.06;5007973;28;20033;-59
2022/10/06 10:08:48;;;;;;;17.98;12.82;;;;;;;17.50;81.76;99587.31;4998426;28;20395;-61
2022/10/06 10:14:19;;;;;;;16.27;12.13;;;;;;;17.25;83.04;99547.13;5007027;28;20049;-60
2022/10/06 10:16:45;;;;;;;18.08;12.55;;;;;;;17.52;85.66;99574.84;4977629;28;20618;-60
2022/10/06 10:19:31;;;;;;;15.90;12.00;;;;;;;17.63;86.21;99577.16;4983794;28;20036;-59
2022/10/06 10:21:58;;;;;;;16.83;11.85;;;;;;;17.74;86.20;99565.47;5007169;28;20040;-60
2022/10/06 10:24:53;;;;;;;17.88;12.07;;;;;;;17.81;84.70;99571.66;5017217;28;20060;-59
2022/10/06 10:27:51;;;;;;;17.77;12.70;;;;;;;17.79;85.38;99581.53;5014433;28;20044;-58
2022/10/06 10:30:16;;;;;;;16.48;12.35;;;;;;;17.85;84.32;99567.75;5014785;28;20585;-59
2022/10/06 10:32:50;;;;;;;17.73;12.35;;;;;;;17.96;85.38;99563.94;4994951;28;20029;-59
2022/10/06 10:35:21;;;;;;;18.10;12.48;;;;;;;18.05;84.73;99559.47;5030030;28;20706;-59
2022/10/06 10:37:46;;;;;;;16.10;11.98;;;;;;;18.18;85.25;99572.06;4972663;28;20992;-58
2022/10/06 10:40:41;;;;;;;16.58;12.20;;;;;;;18.25;84.43;99573.03;5015794;28;20029;-58
2022/10/06 10:43:13;;;;;;;18.50;13.10;;;;;;;18.38;81.77;99562.78;5025986;28;20038;-59
2022/10/06 10:45:47;;;;;;;20.10;13.73;;;;;;;18.46;80.61;99564.56;5007250;28;20041;-58
2022/10/06 10:48:29;;;;;;;17.33;12.98;;;;;;;18.50;78.97;99557.13;5021484;28;20029;-58
2022/10/06 10:51:26;;;;;;;18.35;13.32;;;;;;;18.59;80.19;99562.19;5009265;28;20095;-59
2022/10/06 10:53:57;;;;;;;23.13;13.60;;;;;;;18.67;81.37;99555.22;5015759;28;20684;-60
2022/10/06 10:56:25;;;;;;;22.23;14.13;;;;;;;18.87;78.25;99553.00;5012760;28;20542;-58
2022/10/06 10:59:02;;;;;;;24.50;16.73;;;;;;;19.01;76.58;99546.97;5006274;28;20025;-58
2022/10/06 11:01:40;;;;;;;22.58;16.33;;;;;;;19.08;75.14;99555.00;5020265;28;20586;-58
2022/10/06 11:04:10;;;;;;;22.65;16.33;;;;;;;19.17;75.68;99548.66;4997281;28;20465;-59
2022/10/06 11:07:01;;;;;;;22.48;15.15;;;;;;;19.10;76.20;99516.09;4998587;28;20025;-59
2022/10/06 11:09:50;;;;;;;23.52;17.48;;;;;;;19.36;73.57;99542.84;5018216;28;20041;-59
2022/10/06 11:12:18;;;;;;;;;;;;;;;19.44;73.85;99541.16;5016290;28;20029;-60
2022/10/06 11:15:00;;;;;;;25.33;16.40;;;;;;;19.55;74.93;99530.19;5015758;28;20013;-61
2022/10/06 11:17:43;;;;;;;24.02;17.42;;;;;;;19.55;73.83;99531.00;4969741;28;20534;-59
2022/10/06 11:20:31;;;;;;;23.05;16.98;;;;;;;19.48;73.69;99508.97;4997021;28;20033;-59
2022/10/06 11:23:36;;;;;;;21.83;15.95;;;;;;;19.48;73.75;99505.53;5022160;28;20026;-59
2022/10/06 11:26:25;;;;;;;26.10;17.42;;;;;;;19.43;73.76;99489.41;5010399;28;20124;-60
2022/10/06 11:29:12;;;;;;;21.90;16.90;;;;;;;19.63;73.13;99521.34;5015517;28;20057;-59
2022/10/06 11:31:43;;;;;;;23.75;16.75;;;;;;;19.64;73.89;99520.34;5018246;28;20022;-57
2022/10/06 11:34:09;;;;;;;24.50;18.17;;;;;;;19.61;73.51;99512.81;5026251;28;20032;-58
2022/10/06 11:36:55;;;;;;;23.80;17.73;;;;;;;19.71;73.52;99522.09;5014465;28;20034;-59
2022/10/06 11:39:33;;;;;;;28.08;18.73;;;;;;;19.68;72.93;99488.16;5024155;28;20038;-57